Boray, Minnesota
Current Conditions -  °F | °C
As of 8:35 AM on Sunday 21 Dec 2014 (Local Time) from KGPZ Reporting Station
Overcast Overcast  
Wind Chill: 18°   Ceiling: 500
Heat Index: 28°   Visibility: 3mi
Dew Point: 27°   Wind: 12mph
Humidity: 93%   Direction: 170°S
Pressure: 29.81"   Gusts: NA
Location:  47.2774°N, 93.3384°W
Report Text: KGPZ 211435Z AUTO 17010KT 3SM OVC005 M02/M03 A2981 RMK AO1
Loading
Personal Weather Stations






























Interactive Weather Map New forecast layout! Learn more

10-Day Weather Forecast

Advertisements
Track Severe Weather on mobile